Time;durP1;ratioP1;P1;durP2;ratioP2;P2;SDS_P1;SDS_P2;PMS_P1;PMS_P2;Temp;Humidity;BMP_temperature;BMP_pressure;BME280_temperature;BME280_humidity;BME280_pressure;Samples;Min_cycle;Max_cycle;Signal;HPM_P1;HPM_P2
2023/12/03 00:00:00;;;;;;;13.30;9.60;;;-1.30;99.90;;;;;;5032003;28;20464;-69
2023/12/03 00:02:26;;;;;;;11.03;9.27;;;-1.40;99.90;;;;;;5075077;22;20480;-74
2023/12/03 00:04:53;;;;;;;12.17;9.37;;;-1.40;99.90;;;;;;5068767;28;20416;-73
2023/12/03 00:07:20;;;;;;;14.53;8.87;;;-1.30;99.90;;;;;;5072300;28;20171;-74
2023/12/03 00:09:46;;;;;;;14.07;10.27;;;-1.30;99.90;;;;;;5072484;28;20448;-74
2023/12/03 00:12:12;;;;;;;15.37;10.67;;;-1.30;99.90;;;;;;5057460;28;20439;-74
2023/12/03 00:14:37;;;;;;;14.53;10.27;;;-1.30;99.90;;;;;;5052458;28;20166;-74
2023/12/03 00:17:03;;;;;;;13.80;9.93;;;-1.30;99.90;;;;;;5052172;28;20174;-74
2023/12/03 00:19:29;;;;;;;14.60;10.90;;;-1.30;99.90;;;;;;5052184;28;20197;-73
2023/12/03 00:21:54;;;;;;;13.00;9.87;;;-1.30;99.90;;;;;;5052273;28;20474;-74
2023/12/03 00:24:20;;;;;;;15.87;10.20;;;-1.30;99.90;;;;;;5052382;28;20260;-74
2023/12/03 00:26:46;;;;;;;14.10;9.67;;;-1.20;99.90;;;;;;5051984;28;20165;-73
2023/12/03 00:29:12;;;;;;;13.50;11.00;;;-1.20;99.90;;;;;;5052192;28;20416;-73
2023/12/03 00:31:38;;;;;;;13.77;10.83;;;-1.20;99.90;;;;;;5052093;28;20189;-74
2023/12/03 00:34:05;;;;;;;14.10;10.40;;;-1.20;99.90;;;;;;5050996;28;20456;-74
2023/12/03 00:36:31;;;;;;;16.03;11.10;;;-1.20;99.90;;;;;;5051211;28;20447;-73
2023/12/03 00:38:57;;;;;;;12.67;9.90;;;-1.30;99.90;;;;;;5051560;28;20952;-73
2023/12/03 00:41:23;;;;;;;13.47;10.30;;;-1.30;99.90;;;;;;5061043;28;20478;-73
2023/12/03 00:43:49;;;;;;;16.50;12.70;;;-1.30;99.90;;;;;;5064388;28;20173;-73
2023/12/03 00:46:21;;;;;;;13.93;11.60;;;-1.30;99.90;;;;;;5065258;28;20541;-74
2023/12/03 00:48:47;;;;;;;16.20;12.03;;;-1.30;99.90;;;;;;5059340;28;20509;-73
2023/12/03 00:51:13;;;;;;;16.27;12.20;;;-1.30;99.90;;;;;;5068174;28;20438;-73
2023/12/03 00:53:40;;;;;;;18.20;12.47;;;-1.40;99.90;;;;;;5057220;28;20607;-73
2023/12/03 00:56:06;;;;;;;19.80;12.50;;;-1.30;99.90;;;;;;5070055;28;20423;-73
2023/12/03 00:58:32;;;;;;;18.70;11.60;;;-1.20;99.90;;;;;;5059032;28;20482;-73
2023/12/03 01:00:57;;;;;;;16.67;11.83;;;-1.10;99.90;;;;;;5051740;28;20968;-73
2023/12/03 01:03:23;;;;;;;14.33;12.23;;;-1.20;99.90;;;;;;5051996;28;20627;-74
2023/12/03 01:05:48;;;;;;;19.47;11.23;;;-1.20;99.90;;;;;;5051793;28;20162;-74
2023/12/03 01:08:14;;;;;;;15.63;10.80;;;-1.30;99.90;;;;;;5051516;28;20176;-73
2023/12/03 01:10:39;;;;;;;16.83;11.67;;;-1.30;99.90;;;;;;5044768;28;20174;-73
2023/12/03 01:13:05;;;;;;;14.23;10.90;;;-1.40;99.90;;;;;;5055787;28;20181;-73
2023/12/03 01:15:31;;;;;;;15.37;11.13;;;-1.40;99.90;;;;;;5055870;28;20165;-74
2023/12/03 01:17:56;;;;;;;12.47;10.10;;;-1.30;99.90;;;;;;5055322;28;20820;-73
2023/12/03 01:20:22;;;;;;;15.47;10.57;;;-1.30;99.90;;;;;;5055719;28;20177;-74
2023/12/03 01:22:47;;;;;;;13.90;11.00;;;-1.20;99.90;;;;;;5055748;28;20217;-73
2023/12/03 01:25:13;;;;;;;15.10;11.40;;;-1.20;99.90;;;;;;5055723;28;20808;-73
2023/12/03 01:27:38;;;;;;;15.03;10.80;;;-1.30;99.90;;;;;;5055169;28;20270;-73
2023/12/03 01:30:05;;;;;;;11.73;10.47;;;-1.30;99.90;;;;;;5055468;28;20198;-73
2023/12/03 01:32:30;;;;;;;11.03;9.47;;;-1.30;99.90;;;;;;5055364;28;20678;-73
2023/12/03 01:34:55;;;;;;;12.23;11.00;;;-1.30;99.90;;;;;;5055471;28;20424;-73
2023/12/03 01:37:21;;;;;;;13.23;10.73;;;-1.30;99.90;;;;;;5055061;28;20174;-74
2023/12/03 01:39:47;;;;;;;13.50;10.67;;;-1.40;99.90;;;;;;5055366;28;20201;-74
2023/12/03 01:42:13;;;;;;;13.00;9.93;;;-1.40;99.90;;;;;;5055283;28;20189;-74
2023/12/03 01:44:38;;;;;;;15.87;9.77;;;-1.50;99.90;;;;;;5055369;28;20216;-74
2023/12/03 01:47:05;;;;;;;12.37;10.07;;;-1.40;99.90;;;;;;5054970;28;20810;-74
2023/12/03 01:49:31;;;;;;;13.77;9.30;;;-1.40;99.90;;;;;;5054216;28;20185;-73
2023/12/03 01:51:57;;;;;;;16.47;10.17;;;-1.40;99.90;;;;;;5055005;28;20470;-74
2023/12/03 01:54:27;;;;;;;10.73;8.87;;;-1.40;99.90;;;;;;5054008;28;20435;-73
2023/12/03 01:56:54;;;;;;;10.70;9.33;;;-1.40;99.90;;;;;;5057786;28;20573;-74
2023/12/03 01:59:23;;;;;;;10.73;8.63;;;-1.50;99.90;;;;;;5067609;28;20494;-73
2023/12/03 02:01:48;;;;;;;12.47;8.70;;;-1.40;99.90;;;;;;5061040;28;20513;-73
2023/12/03 02:04:14;;;;;;;11.50;9.23;;;-1.50;99.90;;;;;;5062183;28;20473;-73
2023/12/03 02:06:39;;;;;;;11.43;8.80;;;-1.50;99.90;;;;;;5059492;28;20189;-73
2023/12/03 02:09:06;;;;;;;10.47;9.40;;;-1.60;99.90;;;;;;5061702;28;20181;-74
2023/12/03 02:11:33;;;;;;;11.80;9.73;;;-1.70;99.90;;;;;;5074668;28;20192;-73
2023/12/03 02:13:59;;;;;;;12.70;9.77;;;-1.70;99.90;;;;;;5078075;28;20807;-74
2023/12/03 02:16:24;;;;;;;11.83;9.50;;;-1.60;99.90;;;;;;5053161;28;20416;-73
2023/12/03 02:18:50;;;;;;;11.63;8.33;;;-1.70;99.90;;;;;;5054334;28;20463;-73
2023/12/03 02:21:16;;;;;;;10.07;7.87;;;-1.70;99.90;;;;;;5054768;28;20599;-73
2023/12/03 02:23:41;;;;;;;10.70;9.43;;;-1.60;99.90;;;;;;5053867;28;20166;-73
2023/12/03 02:26:07;;;;;;;13.23;10.80;;;-1.70;99.90;;;;;;5054405;28;20552;-73
2023/12/03 02:28:32;;;;;;;12.63;9.63;;;-1.70;99.90;;;;;;5054244;28;20173;-73
2023/12/03 02:30:58;;;;;;;13.10;8.23;;;-1.70;99.90;;;;;;5054420;28;20193;-73
2023/12/03 02:33:23;;;;;;;10.80;8.70;;;-1.70;99.90;;;;;;5054437;28;20508;-74
2023/12/03 02:35:49;;;;;;;11.40;8.50;;;-1.60;99.90;;;;;;5054144;28;20186;-73
2023/12/03 02:38:15;;;;;;;10.00;7.17;;;-1.50;99.90;;;;;;5054076;28;20174;-73
2023/12/03 02:40:41;;;;;;;11.17;8.40;;;-1.50;99.90;;;;;;5054219;28;20174;-73
2023/12/03 02:43:06;;;;;;;11.70;8.70;;;-1.50;99.90;;;;;;5054181;28;20169;-73
2023/12/03 02:45:32;;;;;;;10.47;8.50;;;-1.60;99.90;;;;;;5054109;28;20239;-73
2023/12/03 02:47:58;;;;;;;9.87;8.70;;;-1.60;99.90;;;;;;5053881;28;20211;-73
2023/12/03 02:50:23;;;;;;;10.90;8.07;;;-1.70;99.90;;;;;;5053962;28;20507;-73
2023/12/03 02:52:49;;;;;;;11.07;9.00;;;-1.70;99.90;;;;;;5053999;28;20225;-73
2023/12/03 02:55:14;;;;;;;8.77;7.57;;;-1.70;99.90;;;;;;5053974;28;20212;-73
2023/12/03 02:57:40;;;;;;;10.50;8.23;;;-1.70;99.90;;;;;;5053565;28;20654;-73
2023/12/03 03:00:06;;;;;;;10.43;7.87;;;-1.70;99.90;;;;;;5053712;28;20193;-73
2023/12/03 03:02:36;;;;;;;11.33;8.97;;;-1.70;99.90;;;;;;5053797;28;20602;-74
2023/12/03 03:05:02;;;;;;;11.77;9.23;;;-1.70;99.90;;;;;;5053812;28;21089;-73
2023/12/03 03:07:28;;;;;;;13.10;9.17;;;-1.70;99.90;;;;;;5053432;28;20920;-73
2023/12/03 03:09:53;;;;;;;9.10;8.20;;;-1.60;99.90;;;;;;5052672;28;20479;-74
2023/12/03 03:12:19;;;;;;;10.00;8.10;;;-1.60;99.90;;;;;;5061848;28;20204;-73
2023/12/03 03:14:44;;;;;;;11.87;8.80;;;-1.50;99.90;;;;;;5073525;28;20181;-74
2023/12/03 03:17:10;;;;;;;11.20;9.27;;;-1.50;99.90;;;;;;5059050;28;20182;-73
2023/12/03 03:19:35;;;;;;;10.97;8.27;;;-1.50;99.90;;;;;;5052108;28;20294;-73
2023/12/03 03:22:01;;;;;;;10.67;9.57;;;-1.50;99.90;;;;;;5053733;28;20201;-73
2023/12/03 03:24:27;;;;;;;9.50;8.50;;;-1.50;99.90;;;;;;5053350;28;20170;-73
2023/12/03 03:26:52;;;;;;;10.90;8.77;;;-1.40;99.90;;;;;;5052785;28;20943;-73
2023/12/03 03:29:18;;;;;;;9.83;8.43;;;-1.40;99.90;;;;;;5053213;28;20268;-73
2023/12/03 03:31:44;;;;;;;11.90;8.57;;;-1.40;99.90;;;;;;5053365;28;20276;-73
2023/12/03 03:34:10;;;;;;;13.40;9.03;;;-1.40;99.90;;;;;;5052938;28;20185;-72
2023/12/03 03:36:36;;;;;;;10.47;7.50;;;-1.30;99.90;;;;;;5052397;28;20438;-73
2023/12/03 03:39:01;;;;;;;10.10;8.80;;;-1.40;99.90;;;;;;5053018;28;20201;-72
2023/12/03 03:41:27;;;;;;;11.60;7.90;;;-1.50;99.90;;;;;;5052875;28;20200;-73
2023/12/03 03:43:52;;;;;;;13.27;9.70;;;-1.50;99.90;;;;;;5052926;28;20211;-73
2023/12/03 03:46:18;;;;;;;13.40;10.17;;;-1.40;99.90;;;;;;5053045;28;20186;-73
2023/12/03 03:48:44;;;;;;;10.80;9.20;;;-1.40;99.90;;;;;;5052838;28;20216;-74
2023/12/03 03:51:09;;;;;;;10.27;9.23;;;-1.50;99.90;;;;;;5052918;28;20193;-73
2023/12/03 03:53:35;;;;;;;13.07;9.90;;;-1.50;99.90;;;;;;5051982;28;20609;-73
2023/12/03 03:56:06;;;;;;;9.67;8.07;;;-1.70;99.90;;;;;;5052826;28;20196;-73
2023/12/03 03:58:32;;;;;;;11.80;9.77;;;-1.70;99.90;;;;;;5052658;28;20204;-73
2023/12/03 04:00:57;;;;;;;12.90;9.83;;;-1.70;99.90;;;;;;5052531;28;20468;-73
2023/12/03 04:03:23;;;;;;;10.90;8.47;;;-1.80;99.90;;;;;;5051566;28;20176;-73
2023/12/03 04:05:48;;;;;;;11.70;8.97;;;-1.90;99.90;;;;;;5053030;28;20583;-73
2023/12/03 04:08:14;;;;;;;11.87;8.97;;;-1.90;99.90;;;;;;5051198;28;20642;-73
2023/12/03 04:10:39;;;;;;;12.57;9.20;;;-1.90;99.90;;;;;;5052444;28;20273;-73
2023/12/03 04:13:05;;;;;;;13.20;10.57;;;-1.90;99.90;;;;;;5051447;28;20173;-73
2023/12/03 04:15:31;;;;;;;11.73;7.93;;;-2.10;99.90;;;;;;5059647;28;20265;-73
2023/12/03 04:17:57;;;;;;;12.20;9.10;;;-2.20;99.90;;;;;;5059076;28;20204;-73
2023/12/03 04:20:22;;;;;;;11.30;8.63;;;-2.20;99.90;;;;;;5052931;28;20459;-73
2023/12/03 04:22:48;;;;;;;10.27;8.30;;;-2.20;99.90;;;;;;5052297;28;20227;-73
2023/12/03 04:25:13;;;;;;;11.57;9.03;;;-2.30;99.90;;;;;;5035035;28;20576;-73
2023/12/03 04:27:39;;;;;;;13.50;10.00;;;-2.30;99.90;;;;;;5032095;28;20162;-73
2023/12/03 04:30:05;;;;;;;12.77;9.00;;;-2.40;99.90;;;;;;5032337;28;20167;-73
2023/12/03 04:32:31;;;;;;;12.90;8.73;;;-2.50;99.90;;;;;;5032361;28;20197;-72
2023/12/03 04:34:56;;;;;;;14.17;9.20;;;-2.50;99.90;;;;;;5039589;28;20935;-72
2023/12/03 04:37:22;;;;;;;14.43;10.43;;;-2.60;99.90;;;;;;5051830;28;20173;-73
2023/12/03 04:39:47;;;;;;;15.83;10.60;;;-2.60;99.90;;;;;;5052058;28;20189;-73
2023/12/03 04:42:13;;;;;;;12.90;9.00;;;-2.70;99.90;;;;;;5052048;28;20777;-72
2023/12/03 04:44:38;;;;;;;12.87;9.90;;;-2.70;99.90;;;;;;5052043;28;20176;-73
2023/12/03 04:47:04;;;;;;;12.97;10.20;;;-2.80;99.90;;;;;;5052876;28;20169;-73
2023/12/03 04:49:29;;;;;;;10.60;8.70;;;-2.90;99.90;;;;;;5052165;28;20208;-73
2023/12/03 04:51:55;;;;;;;13.80;11.00;;;-2.90;99.90;;;;;;5051907;28;20201;-73
2023/12/03 04:54:21;;;;;;;14.87;11.10;;;-3.00;99.90;;;;;;5052224;28;20639;-73
2023/12/03 04:56:46;;;;;;;9.10;7.80;;;-3.10;99.90;;;;;;5051781;28;20180;-72
2023/12/03 04:59:12;;;;;;;14.67;9.93;;;-3.10;99.90;;;;;;5051945;28;20818;-72
2023/12/03 05:01:38;;;;;;;17.07;10.03;;;-3.10;99.90;;;;;;5051807;28;20228;-72
2023/12/03 05:04:03;;;;;;;12.97;9.87;;;-3.10;99.90;;;;;;5052008;28;20189;-74
2023/12/03 05:06:29;;;;;;;14.17;10.50;;;-3.20;99.90;;;;;;5051567;28;20252;-73
2023/12/03 05:08:55;;;;;;;18.23;9.90;;;-3.10;99.90;;;;;;5051659;28;20312;-74
2023/12/03 05:11:20;;;;;;;15.37;10.13;;;-3.20;99.90;;;;;;5051893;28;20181;-74
2023/12/03 05:13:46;;;;;;;13.60;9.30;;;-3.20;99.90;;;;;;5051796;28;20431;-74
2023/12/03 05:16:11;;;;;;;14.13;10.30;;;-3.20;99.90;;;;;;5051815;28;20181;-74
2023/12/03 05:18:37;;;;;;;16.93;11.00;;;-3.20;99.90;;;;;;5050373;28;20250;-74
2023/12/03 05:21:03;;;;;;;14.90;10.63;;;-3.20;99.90;;;;;;5058851;28;20212;-73
2023/12/03 05:23:29;;;;;;;16.60;11.67;;;-3.30;99.90;;;;;;5049504;28;20540;-74
2023/12/03 05:25:54;;;;;;;14.87;9.87;;;-3.30;99.90;;;;;;5061589;28;20416;-74
2023/12/03 05:28:20;;;;;;;12.70;10.03;;;-3.30;99.90;;;;;;5051542;28;20182;-74
2023/12/03 05:30:46;;;;;;;15.37;11.00;;;-3.30;99.90;;;;;;5051582;28;20192;-74
2023/12/03 05:33:11;;;;;;;13.30;9.60;;;-3.40;99.90;;;;;;5051652;28;20166;-74
2023/12/03 05:35:37;;;;;;;14.60;10.77;;;-3.40;99.90;;;;;;5051505;28;20208;-74
2023/12/03 05:38:02;;;;;;;13.77;9.40;;;-3.50;99.90;;;;;;5051346;28;20173;-74
2023/12/03 05:40:28;;;;;;;13.70;10.03;;;-3.50;99.90;;;;;;5045802;28;20205;-74
2023/12/03 05:42:53;;;;;;;16.03;11.07;;;-3.60;99.90;;;;;;5037176;28;20181;-74
2023/12/03 05:45:19;;;;;;;16.40;11.13;;;-3.70;99.90;;;;;;5051598;28;20557;-74
2023/12/03 05:47:45;;;;;;;17.90;11.73;;;-3.70;99.90;;;;;;5051287;28;20226;-74
2023/12/03 05:50:10;;;;;;;17.60;10.80;;;-3.70;99.90;;;;;;5051429;28;20204;-74
2023/12/03 05:52:36;;;;;;;15.03;10.47;;;-3.70;99.90;;;;;;5051473;28;20231;-74
2023/12/03 05:55:02;;;;;;;13.30;12.00;;;-3.80;99.90;;;;;;5051650;28;20166;-73
2023/12/03 05:57:27;;;;;;;19.67;12.17;;;-3.80;99.90;;;;;;5051311;28;20185;-73
2023/12/03 05:59:53;;;;;;;18.43;11.40;;;-3.80;99.90;;;;;;5054628;28;20208;-74
2023/12/03 06:02:20;;;;;;;17.80;12.27;;;-3.80;99.90;;;;;;5055382;28;20197;-73
2023/12/03 06:04:45;;;;;;;14.13;10.47;;;-3.80;99.90;;;;;;5053647;28;20180;-73
2023/12/03 06:07:11;;;;;;;15.70;10.30;;;-3.80;99.90;;;;;;5054887;28;20503;-73
2023/12/03 06:09:37;;;;;;;21.83;12.03;;;-3.80;99.90;;;;;;5054940;28;20166;-73
2023/12/03 06:12:02;;;;;;;21.20;11.23;;;-3.80;99.90;;;;;;5054795;28;20217;-73
2023/12/03 06:14:28;;;;;;;15.80;12.00;;;-3.90;99.90;;;;;;5053687;28;20177;-73
2023/12/03 06:16:53;;;;;;;18.20;11.93;;;-3.90;99.90;;;;;;5054533;28;20189;-73
2023/12/03 06:19:19;;;;;;;14.83;11.20;;;-3.90;99.90;;;;;;5054690;28;20721;-73
2023/12/03 06:21:44;;;;;;;14.50;10.40;;;-3.90;99.90;;;;;;5053574;28;20263;-73
2023/12/03 06:24:10;;;;;;;17.60;10.00;;;-3.90;99.90;;;;;;5054639;28;20197;-73
2023/12/03 06:26:35;;;;;;;15.17;10.87;;;-3.90;99.90;;;;;;5054445;28;20677;-73
2023/12/03 06:29:01;;;;;;;17.73;10.83;;;-4.00;99.90;;;;;;5055626;28;20697;-73
2023/12/03 06:31:27;;;;;;;13.50;10.03;;;-4.00;99.90;;;;;;5072671;28;20207;-73
2023/12/03 06:33:53;;;;;;;11.53;9.53;;;-4.00;99.90;;;;;;5074007;28;20252;-74
2023/12/03 06:36:19;;;;;;;13.53;10.30;;;-4.00;99.90;;;;;;5055358;28;20471;-74
2023/12/03 06:38:44;;;;;;;14.60;8.97;;;-4.00;99.90;;;;;;5057410;28;20197;-74
2023/12/03 06:41:10;;;;;;;10.57;8.53;;;-4.10;99.90;;;;;;5052345;28;20735;-73
2023/12/03 06:43:35;;;;;;;12.50;9.50;;;-4.20;99.90;;;;;;5054510;28;20209;-73
2023/12/03 06:46:01;;;;;;;15.37;9.87;;;-4.20;99.90;;;;;;5060768;28;20177;-74
2023/12/03 06:48:27;;;;;;;13.43;9.03;;;-4.20;99.90;;;;;;5038783;28;20178;-73
2023/12/03 06:50:53;;;;;;;15.20;10.00;;;-4.20;99.90;;;;;;5042173;28;20199;-73
2023/12/03 06:53:19;;;;;;;22.40;11.60;;;-4.20;99.90;;;;;;5047739;28;20265;-73
2023/12/03 06:55:44;;;;;;;18.33;11.00;;;-4.30;99.90;;;;;;5051380;28;20522;-73
2023/12/03 06:58:10;;;;;;;14.70;10.20;;;-4.20;99.90;;;;;;5050526;28;20189;-74
2023/12/03 07:00:36;;;;;;;13.43;10.83;;;-4.30;99.90;;;;;;5061462;28;20189;-73
2023/12/03 07:03:01;;;;;;;17.00;11.40;;;-4.20;99.90;;;;;;5069491;28;20415;-73
2023/12/03 07:05:27;;;;;;;14.77;9.80;;;-4.20;99.90;;;;;;5070893;28;20174;-73
2023/12/03 07:07:52;;;;;;;15.60;10.73;;;-4.10;99.90;;;;;;5070843;28;20173;-73
2023/12/03 07:10:18;;;;;;;17.27;12.43;;;-4.10;99.90;;;;;;5071097;28;20189;-73
2023/12/03 07:12:44;;;;;;;17.67;11.83;;;-4.10;99.90;;;;;;5070136;28;20204;-72
2023/12/03 07:15:10;;;;;;;17.40;11.07;;;-4.20;99.90;;;;;;5069201;28;20181;-73
2023/12/03 07:17:35;;;;;;;18.37;11.00;;;-4.20;99.90;;;;;;5069846;28;20181;-73
2023/12/03 07:20:01;;;;;;;20.00;11.53;;;-4.20;99.90;;;;;;5067839;28;20697;-73
2023/12/03 07:22:27;;;;;;;14.63;9.20;;;-4.20;99.90;;;;;;5068969;28;20284;-73
2023/12/03 07:24:53;;;;;;;15.17;9.80;;;-4.10;99.90;;;;;;5068579;28;20686;-73
2023/12/03 07:27:19;;;;;;;15.07;10.70;;;-4.10;99.90;;;;;;5062807;28;20581;-73
2023/12/03 07:29:45;;;;;;;17.00;12.50;;;-4.10;99.90;;;;;;5055502;28;20499;-73
2023/12/03 07:32:10;;;;;;;12.93;10.50;;;-4.00;99.90;;;;;;5070861;28;20713;-73
2023/12/03 07:34:36;;;;;;;18.20;11.07;;;-4.00;99.90;;;;;;5066256;28;20434;-73
2023/12/03 07:37:02;;;;;;;15.80;10.93;;;-3.90;99.90;;;;;;5053115;28;20261;-73
2023/12/03 07:39:28;;;;;;;15.90;10.93;;;-3.60;99.90;;;;;;5052048;28;20193;-73
2023/12/03 07:41:54;;;;;;;14.43;11.37;;;-2.80;99.90;;;;;;5053162;28;20501;-73
2023/12/03 07:44:21;;;;;;;17.03;11.90;;;-1.80;99.90;;;;;;5053248;28;20253;-74
2023/12/03 07:46:47;;;;;;;14.47;11.20;;;-0.90;99.90;;;;;;5053030;28;20416;-73
2023/12/03 07:49:12;;;;;;;13.33;10.60;;;-0.10;99.90;;;;;;5053045;28;20913;-73
2023/12/03 07:51:38;;;;;;;16.40;10.60;;;0.80;99.90;;;;;;5053084;28;20451;-73
2023/12/03 07:54:03;;;;;;;15.57;11.20;;;1.60;99.90;;;;;;5051608;28;20219;-73
2023/12/03 07:56:36;;;;;;;15.40;11.60;;;2.50;99.90;;;;;;5052742;28;20210;-72
2023/12/03 07:59:02;;;;;;;16.90;12.73;;;2.90;99.90;;;;;;5052869;28;20569;-75
2023/12/03 08:01:28;;;;;;;13.73;10.90;;;3.00;99.90;;;;;;5052678;28;20460;-73
2023/12/03 08:03:53;;;;;;;13.87;12.13;;;3.30;99.90;;;;;;5060145;28;20806;-72
2023/12/03 08:06:19;;;;;;;13.40;9.90;;;4.30;99.90;;;;;;5055690;28;20630;-71
2023/12/03 08:08:44;;;;;;;13.80;10.87;;;5.10;99.90;;;;;;5051935;28;20595;-72
2023/12/03 08:11:10;;;;;;;13.00;10.87;;;5.60;99.90;;;;;;5042982;28;20213;-72
2023/12/03 08:13:36;;;;;;;14.40;10.90;;;6.10;97.50;;;;;;5063567;28;20255;-72
2023/12/03 08:16:05;;;;;;;14.43;12.07;;;6.40;96.10;;;;;;5064045;28;20184;-72
2023/12/03 08:18:33;;;;;;;13.90;11.17;;;6.30;94.20;;;;;;5061603;28;20201;-72
2023/12/03 08:20:59;;;;;;;13.77;11.00;;;6.50;93.80;;;;;;5060263;28;20451;-72
2023/12/03 08:23:28;;;;;;;15.30;11.10;;;5.90;95.60;;;;;;5072586;28;20494;-72
2023/12/03 08:25:54;;;;;;;12.50;11.00;;;4.70;98.60;;;;;;5064446;28;20166;-71
2023/12/03 08:28:20;;;;;;;12.50;10.27;;;3.50;99.90;;;;;;5052376;28;20466;-71
2023/12/03 08:30:46;;;;;;;13.67;11.97;;;3.70;99.90;;;;;;5052164;28;20740;-71
2023/12/03 08:33:12;;;;;;;13.30;11.10;;;4.20;99.90;;;;;;5052178;28;20201;-71
2023/12/03 08:35:37;;;;;;;15.60;11.73;;;5.20;99.90;;;;;;5052231;28;20463;-71
2023/12/03 08:38:03;;;;;;;12.80;10.93;;;5.80;99.20;;;;;;5051963;28;20178;-72
2023/12/03 08:40:28;;;;;;;11.90;10.67;;;7.40;94.70;;;;;;5052007;28;20209;-72
2023/12/03 08:42:54;;;;;;;12.77;10.97;;;8.10;91.20;;;;;;5052155;28;20260;-72
2023/12/03 08:45:19;;;;;;;12.90;11.03;;;9.30;86.30;;;;;;5052073;28;20665;-72
2023/12/03 08:47:45;;;;;;;12.60;10.63;;;8.90;79.40;;;;;;5051888;28;20206;-72
2023/12/03 08:50:11;;;;;;;12.60;10.50;;;9.30;79.40;;;;;;5052600;28;20208;-72
2023/12/03 08:52:36;;;;;;;13.43;12.10;;;10.00;74.90;;;;;;5052296;28;20200;-71
2023/12/03 08:55:02;;;;;;;14.57;13.03;;;10.20;72.00;;;;;;5050681;28;20811;-72
2023/12/03 08:57:28;;;;;;;13.53;12.13;;;9.80;68.50;;;;;;5051720;28;20295;-71
2023/12/03 08:59:54;;;;;;;12.60;11.43;;;10.90;69.00;;;;;;5051870;28;20469;-72
2023/12/03 09:02:20;;;;;;;13.30;12.10;;;11.60;64.90;;;;;;5051852;28;20220;-72
2023/12/03 09:04:45;;;;;;;15.53;11.80;;;11.70;60.10;;;;;;5051711;28;20424;-72
2023/12/03 09:07:11;;;;;;;14.10;12.70;;;12.00;58.60;;;;;;5051550;28;20432;-72
2023/12/03 09:09:37;;;;;;;13.47;12.17;;;12.20;58.20;;;;;;5051723;28;20681;-72
2023/12/03 09:12:03;;;;;;;13.97;12.63;;;12.40;57.10;;;;;;5051624;28;20574;-72
2023/12/03 09:14:28;;;;;;;12.13;10.97;;;12.90;54.80;;;;;;5051810;28;20188;-72
2023/12/03 09:16:54;;;;;;;14.50;13.03;;;13.50;53.70;;;;;;5051600;28;20424;-72
2023/12/03 09:19:20;;;;;;;13.93;12.50;;;13.40;52.10;;;;;;5051695;28;20265;-72
2023/12/03 09:21:46;;;;;;;14.27;12.93;;;13.70;50.50;;;;;;5050041;28;20559;-72
2023/12/03 09:24:12;;;;;;;14.37;12.97;;;13.10;50.40;;;;;;5050371;28;20610;-72
2023/12/03 09:26:37;;;;;;;14.13;12.73;;;12.60;50.00;;;;;;5051984;28;20209;-72
2023/12/03 09:29:04;;;;;;;14.90;13.30;;;12.20;52.10;;;;;;5051595;28;20494;-73
2023/12/03 09:31:30;;;;;;;13.70;12.40;;;12.70;52.80;;;;;;5051551;28;20650;-73
2023/12/03 09:33:55;;;;;;;14.67;13.33;;;13.50;51.50;;;;;;5053667;28;20498;-72
2023/12/03 09:36:21;;;;;;;15.43;14.03;;;13.50;49.70;;;;;;5055375;28;20635;-72
2023/12/03 09:38:46;;;;;;;15.00;13.60;;;14.40;49.20;;;;;;5055395;28;20250;-72
2023/12/03 09:41:15;;;;;;;14.37;12.87;;;14.80;48.40;;;;;;5055212;28;20204;-72
2023/12/03 09:43:45;;;;;;;15.70;14.30;;;15.50;47.20;;;;;;5055331;28;20173;-72
2023/12/03 09:46:14;;;;;;;15.47;13.97;;;15.10;45.00;;;;;;5055192;28;20431;-72
2023/12/03 09:48:43;;;;;;;15.00;13.60;;;14.50;46.50;;;;;;5055059;28;20505;-72
2023/12/03 09:51:12;;;;;;;14.37;13.03;;;12.60;47.40;;;;;;5055185;28;20857;-72
2023/12/03 09:53:44;;;;;;;15.33;13.73;;;12.30;49.00;;;;;;5055117;28;20419;-70
2023/12/03 09:56:14;;;;;;;14.60;13.20;;;10.90;51.20;;;;;;5055186;28;20416;-71
2023/12/03 09:58:42;;;;;;;14.47;12.97;;;10.10;54.00;;;;;;5054694;28;20469;-73
2023/12/03 10:01:07;;;;;;;14.90;13.50;;;10.10;56.10;;;;;;5054821;28;20487;-72
2023/12/03 10:03:33;;;;;;;13.77;12.57;;;10.00;56.40;;;;;;5054929;28;20867;-72
2023/12/03 10:05:59;;;;;;;13.07;11.80;;;9.90;57.20;;;;;;5054908;28;20635;-72
2023/12/03 10:08:25;;;;;;;12.73;11.43;;;10.00;58.30;;;;;;5054605;28;20423;-72
2023/12/03 10:10:58;;;;;;;14.33;12.83;;;11.60;56.30;;;;;;5054729;28;20200;-71
2023/12/03 10:13:25;;;;;;;13.63;12.37;;;12.70;51.70;;;;;;5054804;28;20491;-71
2023/12/03 10:15:50;;;;;;;13.13;11.93;;;12.90;50.20;;;;;;5054496;28;20481;-71
2023/12/03 10:18:16;;;;;;;13.83;12.53;;;13.40;50.60;;;;;;5054318;28;20415;-71
2023/12/03 10:20:42;;;;;;;14.13;12.63;;;15.00;48.20;;;;;;5054497;28;20658;-71
2023/12/03 10:23:14;;;;;;;13.80;12.40;;;16.40;45.00;;;;;;5054622;28;20519;-71
2023/12/03 10:25:40;;;;;;;13.10;11.90;;;16.50;43.70;;;;;;5058198;28;20172;-72
2023/12/03 10:28:08;;;;;;;13.13;12.00;;;16.00;43.40;;;;;;5064399;28;20511;-72
2023/12/03 10:30:35;;;;;;;14.20;12.90;;;17.30;42.90;;;;;;5047673;28;20201;-72
2023/12/03 10:33:01;;;;;;;13.60;12.20;;;18.20;40.60;;;;;;5056814;28;20774;-72
2023/12/03 10:35:32;;;;;;;13.60;12.50;;;17.40;39.20;;;;;;5054172;28;20449;-72
2023/12/03 10:37:57;;;;;;;13.77;12.57;;;17.50;39.30;;;;;;5054159;28;20151;-72
2023/12/03 10:40:23;;;;;;;13.77;12.57;;;18.00;39.40;;;;;;5054169;28;20473;-71
2023/12/03 10:42:49;;;;;;;13.90;12.63;;;18.60;38.50;;;;;;5054125;28;20189;-71
2023/12/03 10:45:15;;;;;;;12.13;11.17;;;18.90;36.80;;;;;;5053464;28;20543;-71
2023/12/03 10:47:42;;;;;;;14.23;13.00;;;19.50;36.90;;;;;;5053714;28;20169;-71
2023/12/03 10:50:09;;;;;;;14.00;12.90;;;18.90;34.80;;;;;;5053951;28;20463;-71
2023/12/03 10:52:38;;;;;;;13.17;12.07;;;18.20;35.50;;;;;;5053893;28;20447;-71
2023/12/03 10:55:04;;;;;;;13.93;12.73;;;17.70;36.00;;;;;;5053887;28;20495;-71
2023/12/03 10:57:32;;;;;;;13.97;12.77;;;16.00;37.10;;;;;;5053583;28;20424;-71
2023/12/03 11:00:09;;;;;;;13.10;11.90;;;16.50;37.60;;;;;;5053923;28;20499;-71
2023/12/03 11:02:46;;;;;;;14.13;12.83;;;16.60;37.60;;;;;;5053766;28;20493;-71
2023/12/03 11:05:33;;;;;;;12.90;11.77;;;16.90;37.10;;;;;;5053542;28;20944;-72
2023/12/03 11:08:02;;;;;;;12.77;11.70;;;17.60;36.50;;;;;;5053441;28;20929;-72
2023/12/03 11:10:28;;;;;;;13.53;12.33;;;16.30;37.20;;;;;;5053557;28;20500;-71
2023/12/03 11:12:56;;;;;;;13.73;12.53;;;16.10;37.80;;;;;;5053889;28;20428;-71
2023/12/03 11:15:22;;;;;;;13.00;12.00;;;17.20;37.00;;;;;;5053529;28;20492;-71
2023/12/03 11:17:50;;;;;;;13.40;12.10;;;17.70;35.20;;;;;;5053395;28;20965;-71
2023/12/03 11:20:27;;;;;;;13.50;12.30;;;16.00;36.90;;;;;;5053532;28;20627;-72
2023/12/03 11:23:08;;;;;;;14.53;13.30;;;17.60;36.60;;;;;;5053367;28;20431;-72
2023/12/03 11:25:38;;;;;;;13.13;11.93;;;17.80;35.00;;;;;;5053555;28;20423;-73
2023/12/03 11:28:04;;;;;;;12.73;11.73;;;19.20;33.80;;;;;;5051680;28;20513;-72
2023/12/03 11:30:40;;;;;;;13.70;12.50;;;20.00;32.70;;;;;;5055054;28;20459;-72
2023/12/03 11:33:07;;;;;;;13.27;12.10;;;18.30;33.20;;;;;;5069043;28;20443;-73
2023/12/03 11:35:33;;;;;;;13.20;12.10;;;19.70;32.10;;;;;;5073644;28;20419;-73
2023/12/03 11:38:00;;;;;;;17.10;15.60;;;20.90;31.50;;;;;;5054508;28;20507;-73
2023/12/03 11:40:34;;;;;;;11.83;10.80;;;21.00;30.80;;;;;;5053148;28;20466;-73
2023/12/03 11:43:00;;;;;;;13.50;12.40;;;19.80;31.20;;;;;;5052991;28;21316;-73
2023/12/03 11:45:27;;;;;;;14.20;13.00;;;19.50;31.20;;;;;;5052952;28;20784;-73
2023/12/03 11:48:11;;;;;;;13.30;12.00;;;19.20;31.40;;;;;;5052677;28;20177;-73
2023/12/03 11:50:42;;;;;;;12.37;11.37;;;17.20;32.60;;;;;;5032887;28;20553;-73
2023/12/03 11:53:13;;;;;;;12.43;11.30;;;17.20;34.50;;;;;;5032844;28;20459;-73
2023/12/03 11:55:42;;;;;;;12.23;11.13;;;16.80;34.20;;;;;;5032304;28;20413;-74
2023/12/03 11:58:08;;;;;;;12.27;11.17;;;15.50;35.30;;;;;;5049353;28;20862;-73
2023/12/03 12:00:34;;;;;;;11.20;10.23;;;15.10;35.90;;;;;;5052662;28;20425;-73
2023/12/03 12:03:02;;;;;;;13.00;11.90;;;15.10;37.00;;;;;;5053281;28;20455;-73
2023/12/03 12:05:28;;;;;;;13.27;12.07;;;16.10;36.40;;;;;;5052653;28;20420;-73
2023/12/03 12:08:01;;;;;;;12.17;11.03;;;17.50;35.40;;;;;;5052777;28;20868;-74
2023/12/03 12:10:34;;;;;;;11.17;10.27;;;19.20;33.10;;;;;;5052391;28;20236;-73
2023/12/03 12:13:03;;;;;;;11.03;10.13;;;19.20;32.30;;;;;;5052388;28;20427;-76
2023/12/03 12:15:30;;;;;;;10.90;9.90;;;18.30;33.10;;;;;;5052570;28;20432;-73
2023/12/03 12:17:55;;;;;;;10.10;9.30;;;17.50;32.50;;;;;;5052143;28;20435;-75
2023/12/03 12:20:29;;;;;;;9.30;8.60;;;16.20;34.20;;;;;;5052289;28;20424;-72
2023/12/03 12:22:56;;;;;;;10.30;9.40;;;16.20;33.90;;;;;;5052350;28;20635;-75
2023/12/03 12:25:25;;;;;;;10.40;9.40;;;16.90;35.10;;;;;;5052246;28;20473;-75